sensor_id;sensor_type;location;lat;lon;timestamp;P1;durP1;ratioP1;P2;durP2;ratioP2
6374;SDS011;35400;45.472;-122.822;2023-06-10T00:01:15;1.87;;;1.77;;
6374;SDS011;35400;45.472;-122.822;2023-06-10T00:03:42;1.90;;;1.80;;
6374;SDS011;35400;45.472;-122.822;2023-06-10T00:06:09;1.80;;;1.70;;
6374;SDS011;35400;45.472;-122.822;2023-06-10T00:08:35;2.80;;;2.47;;
6374;SDS011;35400;45.472;-122.822;2023-06-10T00:11:03;3.53;;;2.47;;
6374;SDS011;35400;45.472;-122.822;2023-06-10T00:13:30;2.27;;;2.07;;
6374;SDS011;35400;45.472;-122.822;2023-06-10T00:15:56;4.83;;;2.07;;
6374;SDS011;35400;45.472;-122.822;2023-06-10T00:18:23;3.70;;;2.30;;
6374;SDS011;35400;45.472;-122.822;2023-06-10T00:20:52;2.27;;;2.07;;
6374;SDS011;35400;45.472;-122.822;2023-06-10T00:23:21;4.00;;;2.53;;
6374;SDS011;35400;45.472;-122.822;2023-06-10T00:25:48;3.33;;;2.17;;
6374;SDS011;35400;45.472;-122.822;2023-06-10T00:28:15;2.43;;;2.20;;
6374;SDS011;35400;45.472;-122.822;2023-06-10T00:30:42;2.47;;;2.17;;
6374;SDS011;35400;45.472;-122.822;2023-06-10T00:33:09;2.40;;;2.20;;
6374;SDS011;35400;45.472;-122.822;2023-06-10T00:35:36;4.40;;;2.40;;
6374;SDS011;35400;45.472;-122.822;2023-06-10T00:38:03;3.10;;;2.27;;
6374;SDS011;35400;45.472;-122.822;2023-06-10T00:40:30;5.40;;;2.30;;
6374;SDS011;35400;45.472;-122.822;2023-06-10T00:42:57;3.43;;;2.33;;
6374;SDS011;35400;45.472;-122.822;2023-06-10T00:45:24;3.00;;;2.43;;
6374;SDS011;35400;45.472;-122.822;2023-06-10T00:47:51;4.07;;;3.57;;
6374;SDS011;35400;45.472;-122.822;2023-06-10T00:50:18;2.30;;;1.93;;
6374;SDS011;35400;45.472;-122.822;2023-06-10T00:52:45;3.00;;;2.33;;
6374;SDS011;35400;45.472;-122.822;2023-06-10T00:55:16;3.50;;;2.40;;
6374;SDS011;35400;45.472;-122.822;2023-06-10T00:57:44;2.23;;;2.03;;
6374;SDS011;35400;45.472;-122.822;2023-06-10T01:00:14;4.43;;;2.77;;
6374;SDS011;35400;45.472;-122.822;2023-06-10T01:02:41;3.43;;;2.50;;
6374;SDS011;35400;45.472;-122.822;2023-06-10T01:05:08;2.77;;;2.50;;
6374;SDS011;35400;45.472;-122.822;2023-06-10T01:10:28;2.93;;;2.50;;
6374;SDS011;35400;45.472;-122.822;2023-06-10T01:12:58;3.20;;;2.67;;
6374;SDS011;35400;45.472;-122.822;2023-06-10T01:15:32;3.43;;;2.47;;
6374;SDS011;35400;45.472;-122.822;2023-06-10T01:18:01;2.90;;;2.60;;
6374;SDS011;35400;45.472;-122.822;2023-06-10T01:20:30;3.80;;;2.47;;
6374;SDS011;35400;45.472;-122.822;2023-06-10T01:23:01;2.83;;;2.53;;
6374;SDS011;35400;45.472;-122.822;2023-06-10T01:25:29;4.03;;;2.77;;
6374;SDS011;35400;45.472;-122.822;2023-06-10T01:28:07;2.60;;;2.30;;
6374;SDS011;35400;45.472;-122.822;2023-06-10T01:33:25;3.10;;;2.70;;
6374;SDS011;35400;45.472;-122.822;2023-06-10T01:35:58;2.53;;;2.33;;
6374;SDS011;35400;45.472;-122.822;2023-06-10T01:38:28;3.20;;;2.77;;
6374;SDS011;35400;45.472;-122.822;2023-06-10T01:40:59;4.17;;;2.83;;
6374;SDS011;35400;45.472;-122.822;2023-06-10T01:43:26;4.40;;;3.17;;
6374;SDS011;35400;45.472;-122.822;2023-06-10T01:45:53;2.97;;;2.77;;
6374;SDS011;35400;45.472;-122.822;2023-06-10T01:48:20;5.00;;;2.93;;
6374;SDS011;35400;45.472;-122.822;2023-06-10T01:50:47;3.43;;;2.90;;
6374;SDS011;35400;45.472;-122.822;2023-06-10T01:53:14;3.60;;;2.97;;
6374;SDS011;35400;45.472;-122.822;2023-06-10T01:55:41;2.60;;;2.40;;
6374;SDS011;35400;45.472;-122.822;2023-06-10T01:58:08;2.97;;;2.77;;
6374;SDS011;35400;45.472;-122.822;2023-06-10T02:00:34;2.60;;;2.40;;
6374;SDS011;35400;45.472;-122.822;2023-06-10T02:03:01;3.83;;;2.70;;
6374;SDS011;35400;45.472;-122.822;2023-06-10T02:05:28;3.67;;;2.67;;
6374;SDS011;35400;45.472;-122.822;2023-06-10T02:07:55;2.80;;;2.60;;
6374;SDS011;35400;45.472;-122.822;2023-06-10T02:10:22;3.00;;;2.67;;
6374;SDS011;35400;45.472;-122.822;2023-06-10T02:12:49;3.10;;;2.90;;
6374;SDS011;35400;45.472;-122.822;2023-06-10T02:15:16;3.37;;;2.53;;
6374;SDS011;35400;45.472;-122.822;2023-06-10T02:17:44;3.60;;;2.30;;
6374;SDS011;35400;45.472;-122.822;2023-06-10T02:20:12;5.37;;;3.20;;
6374;SDS011;35400;45.472;-122.822;2023-06-10T02:22:39;3.53;;;2.80;;
6374;SDS011;35400;45.472;-122.822;2023-06-10T02:25:07;3.87;;;2.33;;
6374;SDS011;35400;45.472;-122.822;2023-06-10T02:27:34;4.60;;;2.93;;
6374;SDS011;35400;45.472;-122.822;2023-06-10T02:30:01;3.17;;;2.80;;
6374;SDS011;35400;45.472;-122.822;2023-06-10T02:32:31;3.87;;;2.70;;
6374;SDS011;35400;45.472;-122.822;2023-06-10T02:34:58;2.97;;;2.67;;
6374;SDS011;35400;45.472;-122.822;2023-06-10T02:37:26;4.57;;;3.00;;
6374;SDS011;35400;45.472;-122.822;2023-06-10T02:39:54;4.00;;;2.73;;
6374;SDS011;35400;45.472;-122.822;2023-06-10T02:42:22;3.90;;;3.20;;
6374;SDS011;35400;45.472;-122.822;2023-06-10T02:44:50;4.00;;;3.00;;
6374;SDS011;35400;45.472;-122.822;2023-06-10T02:47:27;3.80;;;2.70;;
6374;SDS011;35400;45.472;-122.822;2023-06-10T02:49:54;2.70;;;2.50;;
6374;SDS011;35400;45.472;-122.822;2023-06-10T02:52:21;7.03;;;3.13;;
6374;SDS011;35400;45.472;-122.822;2023-06-10T02:54:48;2.90;;;2.70;;
6374;SDS011;35400;45.472;-122.822;2023-06-10T02:57:15;2.93;;;2.67;;
6374;SDS011;35400;45.472;-122.822;2023-06-10T02:59:43;3.50;;;2.70;;
6374;SDS011;35400;45.472;-122.822;2023-06-10T03:02:10;3.63;;;3.33;;
6374;SDS011;35400;45.472;-122.822;2023-06-10T03:04:43;2.77;;;2.33;;
6374;SDS011;35400;45.472;-122.822;2023-06-10T03:07:14;5.13;;;3.10;;
6374;SDS011;35400;45.472;-122.822;2023-06-10T03:09:41;3.13;;;2.83;;
6374;SDS011;35400;45.472;-122.822;2023-06-10T03:12:10;3.03;;;2.70;;
6374;SDS011;35400;45.472;-122.822;2023-06-10T03:14:43;3.53;;;2.97;;
6374;SDS011;35400;45.472;-122.822;2023-06-10T03:17:10;4.07;;;2.90;;
6374;SDS011;35400;45.472;-122.822;2023-06-10T03:19:40;4.00;;;2.97;;
6374;SDS011;35400;45.472;-122.822;2023-06-10T03:22:10;4.20;;;2.90;;
6374;SDS011;35400;45.472;-122.822;2023-06-10T03:24:44;3.27;;;2.60;;
6374;SDS011;35400;45.472;-122.822;2023-06-10T03:27:13;3.00;;;2.70;;
6374;SDS011;35400;45.472;-122.822;2023-06-10T03:29:43;3.10;;;2.40;;
6374;SDS011;35400;45.472;-122.822;2023-06-10T03:32:10;2.90;;;2.70;;
6374;SDS011;35400;45.472;-122.822;2023-06-10T03:34:40;5.10;;;2.87;;
6374;SDS011;35400;45.472;-122.822;2023-06-10T03:37:07;3.83;;;2.70;;
6374;SDS011;35400;45.472;-122.822;2023-06-10T03:39:35;3.10;;;2.80;;
6374;SDS011;35400;45.472;-122.822;2023-06-10T03:42:02;3.20;;;2.90;;
6374;SDS011;35400;45.472;-122.822;2023-06-10T03:44:30;4.87;;;2.53;;
6374;SDS011;35400;45.472;-122.822;2023-06-10T03:46:58;3.17;;;2.77;;
6374;SDS011;35400;45.472;-122.822;2023-06-10T03:49:26;4.63;;;3.40;;
6374;SDS011;35400;45.472;-122.822;2023-06-10T03:51:58;3.23;;;2.87;;
6374;SDS011;35400;45.472;-122.822;2023-06-10T03:54:26;2.57;;;2.37;;
6374;SDS011;35400;45.472;-122.822;2023-06-10T03:56:53;3.07;;;2.40;;
6374;SDS011;35400;45.472;-122.822;2023-06-10T03:59:19;2.90;;;2.67;;
6374;SDS011;35400;45.472;-122.822;2023-06-10T04:01:46;4.17;;;2.90;;
6374;SDS011;35400;45.472;-122.822;2023-06-10T04:04:14;4.63;;;3.17;;
6374;SDS011;35400;45.472;-122.822;2023-06-10T04:06:45;3.13;;;2.40;;
6374;SDS011;35400;45.472;-122.822;2023-06-10T04:09:14;4.47;;;2.60;;
6374;SDS011;35400;45.472;-122.822;2023-06-10T04:11:41;4.27;;;2.70;;
6374;SDS011;35400;45.472;-122.822;2023-06-10T04:14:08;4.63;;;2.60;;
6374;SDS011;35400;45.472;-122.822;2023-06-10T04:16:35;3.03;;;2.70;;
6374;SDS011;35400;45.472;-122.822;2023-06-10T04:19:04;2.73;;;2.53;;
6374;SDS011;35400;45.472;-122.822;2023-06-10T04:21:31;3.83;;;2.67;;
6374;SDS011;35400;45.472;-122.822;2023-06-10T04:23:59;4.57;;;2.60;;
6374;SDS011;35400;45.472;-122.822;2023-06-10T04:26:26;3.87;;;2.90;;
6374;SDS011;35400;45.472;-122.822;2023-06-10T04:28:54;2.80;;;2.33;;
6374;SDS011;35400;45.472;-122.822;2023-06-10T04:31:21;3.00;;;2.70;;
6374;SDS011;35400;45.472;-122.822;2023-06-10T04:33:50;4.33;;;2.80;;
6374;SDS011;35400;45.472;-122.822;2023-06-10T04:36:16;5.03;;;2.90;;
6374;SDS011;35400;45.472;-122.822;2023-06-10T04:38:43;4.03;;;2.70;;
6374;SDS011;35400;45.472;-122.822;2023-06-10T04:41:11;6.23;;;2.80;;
6374;SDS011;35400;45.472;-122.822;2023-06-10T04:43:38;3.37;;;2.60;;
6374;SDS011;35400;45.472;-122.822;2023-06-10T04:46:05;3.27;;;2.60;;
6374;SDS011;35400;45.472;-122.822;2023-06-10T04:48:32;2.73;;;2.53;;
6374;SDS011;35400;45.472;-122.822;2023-06-10T04:51:00;3.50;;;2.83;;
6374;SDS011;35400;45.472;-122.822;2023-06-10T04:53:28;3.30;;;2.63;;
6374;SDS011;35400;45.472;-122.822;2023-06-10T04:55:55;3.00;;;2.67;;
6374;SDS011;35400;45.472;-122.822;2023-06-10T04:58:23;4.00;;;2.70;;
6374;SDS011;35400;45.472;-122.822;2023-06-10T05:00:50;3.47;;;2.97;;
6374;SDS011;35400;45.472;-122.822;2023-06-10T05:03:17;3.73;;;2.80;;
6374;SDS011;35400;45.472;-122.822;2023-06-10T05:05:43;3.77;;;3.30;;
6374;SDS011;35400;45.472;-122.822;2023-06-10T05:08:10;3.37;;;2.73;;
6374;SDS011;35400;45.472;-122.822;2023-06-10T05:10:37;3.30;;;3.00;;
6374;SDS011;35400;45.472;-122.822;2023-06-10T05:13:04;3.13;;;2.83;;
6374;SDS011;35400;45.472;-122.822;2023-06-10T05:15:31;5.47;;;3.03;;
6374;SDS011;35400;45.472;-122.822;2023-06-10T05:17:58;3.77;;;2.80;;
6374;SDS011;35400;45.472;-122.822;2023-06-10T05:20:25;3.03;;;2.73;;
6374;SDS011;35400;45.472;-122.822;2023-06-10T05:22:54;2.80;;;2.60;;
6374;SDS011;35400;45.472;-122.822;2023-06-10T05:25:21;4.43;;;3.07;;
6374;SDS011;35400;45.472;-122.822;2023-06-10T05:27:48;3.00;;;2.70;;
6374;SDS011;35400;45.472;-122.822;2023-06-10T05:30:14;4.60;;;3.20;;
6374;SDS011;35400;45.472;-122.822;2023-06-10T05:32:44;3.07;;;2.77;;
6374;SDS011;35400;45.472;-122.822;2023-06-10T05:35:11;5.50;;;3.30;;
6374;SDS011;35400;45.472;-122.822;2023-06-10T05:37:38;4.07;;;3.20;;
6374;SDS011;35400;45.472;-122.822;2023-06-10T05:40:05;3.47;;;3.17;;
6374;SDS011;35400;45.472;-122.822;2023-06-10T05:42:32;3.23;;;2.93;;
6374;SDS011;35400;45.472;-122.822;2023-06-10T05:44:59;5.37;;;3.20;;
6374;SDS011;35400;45.472;-122.822;2023-06-10T05:47:26;3.30;;;3.00;;
6374;SDS011;35400;45.472;-122.822;2023-06-10T05:49:52;3.50;;;3.20;;
6374;SDS011;35400;45.472;-122.822;2023-06-10T05:52:19;4.87;;;3.70;;
6374;SDS011;35400;45.472;-122.822;2023-06-10T05:54:46;4.50;;;3.00;;
6374;SDS011;35400;45.472;-122.822;2023-06-10T05:57:13;3.33;;;2.87;;
6374;SDS011;35400;45.472;-122.822;2023-06-10T05:59:40;5.03;;;3.13;;
6374;SDS011;35400;45.472;-122.822;2023-06-10T06:02:07;4.13;;;3.03;;
6374;SDS011;35400;45.472;-122.822;2023-06-10T06:04:34;3.80;;;3.40;;
6374;SDS011;35400;45.472;-122.822;2023-06-10T06:07:00;5.50;;;3.40;;
6374;SDS011;35400;45.472;-122.822;2023-06-10T06:09:27;4.20;;;2.97;;
6374;SDS011;35400;45.472;-122.822;2023-06-10T06:11:54;3.80;;;3.33;;
6374;SDS011;35400;45.472;-122.822;2023-06-10T06:14:21;3.97;;;3.50;;
6374;SDS011;35400;45.472;-122.822;2023-06-10T06:16:48;4.70;;;3.93;;
6374;SDS011;35400;45.472;-122.822;2023-06-10T06:19:14;3.90;;;3.60;;
6374;SDS011;35400;45.472;-122.822;2023-06-10T06:21:41;5.23;;;3.63;;
6374;SDS011;35400;45.472;-122.822;2023-06-10T06:24:08;3.80;;;3.40;;
6374;SDS011;35400;45.472;-122.822;2023-06-10T06:26:35;4.40;;;3.33;;
6374;SDS011;35400;45.472;-122.822;2023-06-10T06:29:02;3.30;;;3.00;;
6374;SDS011;35400;45.472;-122.822;2023-06-10T06:31:29;3.60;;;3.30;;
6374;SDS011;35400;45.472;-122.822;2023-06-10T06:33:56;3.73;;;3.33;;
6374;SDS011;35400;45.472;-122.822;2023-06-10T06:36:23;3.67;;;3.37;;
6374;SDS011;35400;45.472;-122.822;2023-06-10T06:38:50;4.17;;;3.37;;
6374;SDS011;35400;45.472;-122.822;2023-06-10T06:41:19;4.07;;;3.63;;
6374;SDS011;35400;45.472;-122.822;2023-06-10T06:43:47;4.73;;;3.70;;
6374;SDS011;35400;45.472;-122.822;2023-06-10T06:46:24;4.53;;;3.47;;
6374;SDS011;35400;45.472;-122.822;2023-06-10T06:48:51;5.40;;;4.20;;
6374;SDS011;35400;45.472;-122.822;2023-06-10T06:51:18;6.07;;;5.53;;
6374;SDS011;35400;45.472;-122.822;2023-06-10T06:53:45;7.93;;;7.13;;
6374;SDS011;35400;45.472;-122.822;2023-06-10T06:56:11;7.10;;;6.37;;
6374;SDS011;35400;45.472;-122.822;2023-06-10T06:58:38;9.40;;;7.20;;
6374;SDS011;35400;45.472;-122.822;2023-06-10T07:01:05;8.03;;;5.87;;
6374;SDS011;35400;45.472;-122.822;2023-06-10T07:03:32;6.63;;;6.03;;
6374;SDS011;35400;45.472;-122.822;2023-06-10T07:05:59;7.23;;;5.20;;
6374;SDS011;35400;45.472;-122.822;2023-06-10T07:08:26;6.33;;;5.73;;
6374;SDS011;35400;45.472;-122.822;2023-06-10T07:10:53;5.80;;;5.30;;
6374;SDS011;35400;45.472;-122.822;2023-06-10T07:13:19;6.40;;;4.90;;
6374;SDS011;35400;45.472;-122.822;2023-06-10T07:15:46;6.67;;;5.33;;
6374;SDS011;35400;45.472;-122.822;2023-06-10T07:18:14;5.23;;;4.77;;
6374;SDS011;35400;45.472;-122.822;2023-06-10T07:20:42;4.80;;;4.40;;
6374;SDS011;35400;45.472;-122.822;2023-06-10T07:23:09;5.67;;;4.50;;
6374;SDS011;35400;45.472;-122.822;2023-06-10T07:25:36;5.13;;;4.53;;
6374;SDS011;35400;45.472;-122.822;2023-06-10T07:28:03;4.23;;;3.83;;
6374;SDS011;35400;45.472;-122.822;2023-06-10T07:30:30;5.20;;;3.67;;
6374;SDS011;35400;45.472;-122.822;2023-06-10T07:32:57;4.47;;;3.57;;
6374;SDS011;35400;45.472;-122.822;2023-06-10T07:35:23;4.40;;;3.70;;
6374;SDS011;35400;45.472;-122.822;2023-06-10T07:37:50;4.47;;;3.70;;
6374;SDS011;35400;45.472;-122.822;2023-06-10T07:40:17;4.40;;;4.00;;
6374;SDS011;35400;45.472;-122.822;2023-06-10T07:42:44;5.00;;;3.73;;
6374;SDS011;35400;45.472;-122.822;2023-06-10T07:45:11;3.50;;;3.20;;
6374;SDS011;35400;45.472;-122.822;2023-06-10T07:47:38;4.57;;;3.97;;
6374;SDS011;35400;45.472;-122.822;2023-06-10T07:50:05;3.63;;;3.33;;
6374;SDS011;35400;45.472;-122.822;2023-06-10T07:52:32;4.30;;;3.90;;
6374;SDS011;35400;45.472;-122.822;2023-06-10T07:54:59;4.40;;;3.57;;
6374;SDS011;35400;45.472;-122.822;2023-06-10T07:57:26;4.67;;;4.17;;
6374;SDS011;35400;45.472;-122.822;2023-06-10T07:59:53;5.20;;;3.50;;
6374;SDS011;35400;45.472;-122.822;2023-06-10T08:02:20;4.57;;;3.93;;
6374;SDS011;35400;45.472;-122.822;2023-06-10T08:04:47;3.83;;;3.43;;
6374;SDS011;35400;45.472;-122.822;2023-06-10T08:07:14;4.97;;;3.27;;
6374;SDS011;35400;45.472;-122.822;2023-06-10T08:09:41;4.87;;;3.67;;
6374;SDS011;35400;45.472;-122.822;2023-06-10T08:12:07;3.87;;;3.47;;
6374;SDS011;35400;45.472;-122.822;2023-06-10T08:14:38;3.80;;;3.50;;
6374;SDS011;35400;45.472;-122.822;2023-06-10T08:17:05;3.70;;;3.40;;
6374;SDS011;35400;45.472;-122.822;2023-06-10T08:19:32;4.13;;;3.63;;
6374;SDS011;35400;45.472;-122.822;2023-06-10T08:21:59;4.20;;;3.60;;
6374;SDS011;35400;45.472;-122.822;2023-06-10T08:24:26;4.77;;;3.43;;
6374;SDS011;35400;45.472;-122.822;2023-06-10T08:26:53;4.23;;;3.93;;
6374;SDS011;35400;45.472;-122.822;2023-06-10T08:29:21;6.93;;;3.50;;
6374;SDS011;35400;45.472;-122.822;2023-06-10T08:31:49;3.77;;;3.40;;
6374;SDS011;35400;45.472;-122.822;2023-06-10T08:34:15;4.30;;;3.77;;
6374;SDS011;35400;45.472;-122.822;2023-06-10T08:36:43;3.43;;;3.13;;
6374;SDS011;35400;45.472;-122.822;2023-06-10T08:39:11;4.43;;;3.70;;
6374;SDS011;35400;45.472;-122.822;2023-06-10T08:41:40;4.23;;;3.67;;
6374;SDS011;35400;45.472;-122.822;2023-06-10T08:44:12;5.07;;;3.50;;
6374;SDS011;35400;45.472;-122.822;2023-06-10T08:46:46;3.80;;;3.50;;
6374;SDS011;35400;45.472;-122.822;2023-06-10T08:49:15;3.90;;;3.53;;
6374;SDS011;35400;45.472;-122.822;2023-06-10T08:51:47;4.90;;;3.30;;
6374;SDS011;35400;45.472;-122.822;2023-06-10T08:54:28;3.73;;;3.43;;
6374;SDS011;35400;45.472;-122.822;2023-06-10T08:56:58;3.80;;;3.40;;
6374;SDS011;35400;45.472;-122.822;2023-06-10T08:59:28;3.97;;;3.30;;
6374;SDS011;35400;45.472;-122.822;2023-06-10T09:01:55;3.83;;;3.40;;
6374;SDS011;35400;45.472;-122.822;2023-06-10T09:04:23;4.97;;;3.83;;
6374;SDS011;35400;45.472;-122.822;2023-06-10T09:06:51;5.33;;;3.90;;
6374;SDS011;35400;45.472;-122.822;2023-06-10T09:09:19;4.37;;;3.60;;
6374;SDS011;35400;45.472;-122.822;2023-06-10T09:11:47;4.00;;;3.40;;
6374;SDS011;35400;45.472;-122.822;2023-06-10T09:14:13;5.90;;;3.67;;
6374;SDS011;35400;45.472;-122.822;2023-06-10T09:16:42;4.97;;;4.13;;
6374;SDS011;35400;45.472;-122.822;2023-06-10T09:19:09;3.90;;;3.60;;
6374;SDS011;35400;45.472;-122.822;2023-06-10T09:21:39;4.63;;;3.83;;
6374;SDS011;35400;45.472;-122.822;2023-06-10T09:24:06;4.87;;;3.87;;
6374;SDS011;35400;45.472;-122.822;2023-06-10T09:26:33;4.17;;;3.57;;
6374;SDS011;35400;45.472;-122.822;2023-06-10T09:29:04;5.23;;;4.50;;
6374;SDS011;35400;45.472;-122.822;2023-06-10T09:31:34;4.27;;;3.67;;
6374;SDS011;35400;45.472;-122.822;2023-06-10T09:34:11;4.37;;;3.73;;
6374;SDS011;35400;45.472;-122.822;2023-06-10T09:36:40;3.67;;;3.37;;
6374;SDS011;35400;45.472;-122.822;2023-06-10T09:39:14;4.67;;;4.13;;
6374;SDS011;35400;45.472;-122.822;2023-06-10T09:41:42;3.87;;;3.47;;
6374;SDS011;35400;45.472;-122.822;2023-06-10T09:44:17;3.83;;;2.97;;
6374;SDS011;35400;45.472;-122.822;2023-06-10T09:46:46;4.47;;;3.40;;
6374;SDS011;35400;45.472;-122.822;2023-06-10T09:49:15;4.53;;;3.37;;
6374;SDS011;35400;45.472;-122.822;2023-06-10T09:51:49;4.27;;;3.73;;
6374;SDS011;35400;45.472;-122.822;2023-06-10T09:54:17;4.37;;;3.67;;
6374;SDS011;35400;45.472;-122.822;2023-06-10T09:56:48;3.83;;;3.33;;
6374;SDS011;35400;45.472;-122.822;2023-06-10T09:59:30;4.77;;;3.73;;
6374;SDS011;35400;45.472;-122.822;2023-06-10T10:02:00;4.33;;;3.77;;
6374;SDS011;35400;45.472;-122.822;2023-06-10T10:04:27;5.37;;;3.73;;
6374;SDS011;35400;45.472;-122.822;2023-06-10T10:06:54;4.27;;;3.83;;
6374;SDS011;35400;45.472;-122.822;2023-06-10T10:09:21;5.73;;;3.90;;
6374;SDS011;35400;45.472;-122.822;2023-06-10T10:11:48;5.40;;;4.23;;
6374;SDS011;35400;45.472;-122.822;2023-06-10T10:14:15;4.83;;;3.47;;
6374;SDS011;35400;45.472;-122.822;2023-06-10T10:16:44;4.00;;;3.57;;
6374;SDS011;35400;45.472;-122.822;2023-06-10T10:19:20;3.93;;;3.40;;
6374;SDS011;35400;45.472;-122.822;2023-06-10T10:21:54;6.73;;;4.07;;
6374;SDS011;35400;45.472;-122.822;2023-06-10T10:24:33;5.40;;;3.37;;
6374;SDS011;35400;45.472;-122.822;2023-06-10T10:27:04;5.47;;;3.10;;
6374;SDS011;35400;45.472;-122.822;2023-06-10T10:29:38;4.67;;;3.63;;
6374;SDS011;35400;45.472;-122.822;2023-06-10T10:32:06;4.73;;;3.83;;
6374;SDS011;35400;45.472;-122.822;2023-06-10T10:34:47;6.53;;;3.20;;
6374;SDS011;35400;45.472;-122.822;2023-06-10T10:37:23;3.53;;;3.20;;
6374;SDS011;35400;45.472;-122.822;2023-06-10T10:39:51;5.43;;;3.83;;
6374;SDS011;35400;45.472;-122.822;2023-06-10T10:42:19;5.70;;;3.87;;
6374;SDS011;35400;45.472;-122.822;2023-06-10T10:44:46;5.23;;;3.90;;
6374;SDS011;35400;45.472;-122.822;2023-06-10T10:47:15;4.27;;;3.53;;
6374;SDS011;35400;45.472;-122.822;2023-06-10T10:49:43;4.17;;;3.23;;
6374;SDS011;35400;45.472;-122.822;2023-06-10T10:52:12;4.97;;;3.80;;
6374;SDS011;35400;45.472;-122.822;2023-06-10T10:54:43;3.83;;;3.30;;
6374;SDS011;35400;45.472;-122.822;2023-06-10T10:57:13;5.07;;;3.63;;
6374;SDS011;35400;45.472;-122.822;2023-06-10T11:02:40;4.03;;;3.63;;
6374;SDS011;35400;45.472;-122.822;2023-06-10T11:05:13;5.87;;;3.67;;
6374;SDS011;35400;45.472;-122.822;2023-06-10T11:07:51;5.30;;;3.57;;
6374;SDS011;35400;45.472;-122.822;2023-06-10T11:10:30;4.27;;;3.87;;
6374;SDS011;35400;45.472;-122.822;2023-06-10T11:12:58;4.73;;;3.80;;
6374;SDS011;35400;45.472;-122.822;2023-06-10T11:15:27;4.77;;;3.73;;
6374;SDS011;35400;45.472;-122.822;2023-06-10T11:18:14;6.67;;;4.40;;
6374;SDS011;35400;45.472;-122.822;2023-06-10T11:20:51;5.73;;;3.87;;
6374;SDS011;35400;45.472;-122.822;2023-06-10T11:31:23;4.90;;;3.60;;
6374;SDS011;35400;45.472;-122.822;2023-06-10T11:34:01;3.90;;;3.50;;
6374;SDS011;35400;45.472;-122.822;2023-06-10T11:36:30;3.50;;;3.20;;
6374;SDS011;35400;45.472;-122.822;2023-06-10T11:38:59;3.90;;;3.53;;
6374;SDS011;35400;45.472;-122.822;2023-06-10T11:41:30;4.77;;;3.83;;
6374;SDS011;35400;45.472;-122.822;2023-06-10T11:44:02;5.17;;;3.70;;
6374;SDS011;35400;45.472;-122.822;2023-06-10T11:46:31;6.37;;;3.47;;
6374;SDS011;35400;45.472;-122.822;2023-06-10T11:48:59;5.03;;;3.83;;
6374;SDS011;35400;45.472;-122.822;2023-06-10T11:51:32;3.33;;;3.00;;
6374;SDS011;35400;45.472;-122.822;2023-06-10T11:54:05;3.77;;;3.33;;
6374;SDS011;35400;45.472;-122.822;2023-06-10T11:56:35;4.37;;;3.50;;
6374;SDS011;35400;45.472;-122.822;2023-06-10T11:59:03;6.80;;;3.43;;
6374;SDS011;35400;45.472;-122.822;2023-06-10T12:01:34;5.77;;;3.73;;
6374;SDS011;35400;45.472;-122.822;2023-06-10T12:04:08;5.27;;;3.37;;
6374;SDS011;35400;45.472;-122.822;2023-06-10T12:06:46;3.90;;;3.10;;
6374;SDS011;35400;45.472;-122.822;2023-06-10T12:09:15;4.20;;;3.80;;
6374;SDS011;35400;45.472;-122.822;2023-06-10T12:11:51;3.50;;;3.20;;
6374;SDS011;35400;45.472;-122.822;2023-06-10T12:20:08;4.70;;;3.30;;
6374;SDS011;35400;45.472;-122.822;2023-06-10T12:22:50;4.73;;;3.60;;
6374;SDS011;35400;45.472;-122.822;2023-06-10T12:25:17;5.80;;;3.23;;
6374;SDS011;35400;45.472;-122.822;2023-06-10T12:27:54;3.87;;;3.23;;
6374;SDS011;35400;45.472;-122.822;2023-06-10T12:30:24;5.00;;;3.20;;
6374;SDS011;35400;45.472;-122.822;2023-06-10T12:32:52;5.50;;;3.13;;
6374;SDS011;35400;45.472;-122.822;2023-06-10T12:35:20;4.53;;;2.87;;
6374;SDS011;35400;45.472;-122.822;2023-06-10T12:37:57;3.70;;;3.40;;
6374;SDS011;35400;45.472;-122.822;2023-06-10T12:40:29;4.30;;;3.17;;
6374;SDS011;35400;45.472;-122.822;2023-06-10T12:42:58;3.90;;;3.60;;
6374;SDS011;35400;45.472;-122.822;2023-06-10T12:45:29;4.73;;;3.70;;
6374;SDS011;35400;45.472;-122.822;2023-06-10T12:50:54;5.83;;;3.53;;
6374;SDS011;35400;45.472;-122.822;2023-06-10T12:53:23;5.90;;;3.77;;
6374;SDS011;35400;45.472;-122.822;2023-06-10T12:55:52;4.77;;;4.20;;
6374;SDS011;35400;45.472;-122.822;2023-06-10T12:58:19;6.47;;;4.57;;
6374;SDS011;35400;45.472;-122.822;2023-06-10T13:00:47;5.10;;;4.37;;
6374;SDS011;35400;45.472;-122.822;2023-06-10T13:03:14;5.90;;;4.30;;
6374;SDS011;35400;45.472;-122.822;2023-06-10T13:05:42;6.13;;;4.77;;
6374;SDS011;35400;45.472;-122.822;2023-06-10T13:08:09;7.57;;;5.40;;
6374;SDS011;35400;45.472;-122.822;2023-06-10T13:10:36;4.90;;;4.40;;
6374;SDS011;35400;45.472;-122.822;2023-06-10T13:13:03;4.77;;;4.10;;
6374;SDS011;35400;45.472;-122.822;2023-06-10T13:15:31;4.80;;;4.40;;
6374;SDS011;35400;45.472;-122.822;2023-06-10T13:18:02;3.97;;;3.67;;
6374;SDS011;35400;45.472;-122.822;2023-06-10T13:20:30;4.27;;;3.87;;
6374;SDS011;35400;45.472;-122.822;2023-06-10T13:22:57;6.93;;;3.83;;
6374;SDS011;35400;45.472;-122.822;2023-06-10T13:25:24;7.40;;;4.33;;
6374;SDS011;35400;45.472;-122.822;2023-06-10T13:27:51;6.03;;;3.83;;
6374;SDS011;35400;45.472;-122.822;2023-06-10T13:30:18;4.97;;;4.00;;
6374;SDS011;35400;45.472;-122.822;2023-06-10T13:32:45;3.80;;;3.40;;
6374;SDS011;35400;45.472;-122.822;2023-06-10T13:35:11;3.80;;;3.50;;
6374;SDS011;35400;45.472;-122.822;2023-06-10T13:37:38;4.07;;;3.77;;
6374;SDS011;35400;45.472;-122.822;2023-06-10T13:40:05;5.20;;;4.00;;
6374;SDS011;35400;45.472;-122.822;2023-06-10T13:42:33;4.83;;;3.90;;
6374;SDS011;35400;45.472;-122.822;2023-06-10T13:45:02;4.63;;;4.00;;
6374;SDS011;35400;45.472;-122.822;2023-06-10T13:47:30;4.10;;;3.70;;
6374;SDS011;35400;45.472;-122.822;2023-06-10T13:49:56;4.90;;;4.27;;
6374;SDS011;35400;45.472;-122.822;2023-06-10T13:52:23;5.67;;;3.97;;
6374;SDS011;35400;45.472;-122.822;2023-06-10T13:54:50;4.00;;;3.67;;
6374;SDS011;35400;45.472;-122.822;2023-06-10T13:57:17;5.40;;;4.80;;
6374;SDS011;35400;45.472;-122.822;2023-06-10T13:59:44;4.57;;;4.17;;
6374;SDS011;35400;45.472;-122.822;2023-06-10T14:02:11;4.77;;;4.27;;
6374;SDS011;35400;45.472;-122.822;2023-06-10T14:04:37;5.77;;;4.23;;
6374;SDS011;35400;45.472;-122.822;2023-06-10T14:07:04;4.97;;;3.67;;
6374;SDS011;35400;45.472;-122.822;2023-06-10T14:09:31;4.37;;;3.50;;
6374;SDS011;35400;45.472;-122.822;2023-06-10T14:11:58;4.37;;;3.47;;
6374;SDS011;35400;45.472;-122.822;2023-06-10T14:14:25;3.80;;;3.40;;
6374;SDS011;35400;45.472;-122.822;2023-06-10T14:16:52;5.47;;;4.17;;
6374;SDS011;35400;45.472;-122.822;2023-06-10T14:19:19;4.37;;;3.30;;
6374;SDS011;35400;45.472;-122.822;2023-06-10T14:21:46;3.93;;;2.83;;
6374;SDS011;35400;45.472;-122.822;2023-06-10T14:24:13;3.40;;;3.10;;
6374;SDS011;35400;45.472;-122.822;2023-06-10T14:26:40;4.00;;;3.40;;
6374;SDS011;35400;45.472;-122.822;2023-06-10T14:29:07;3.93;;;3.20;;
6374;SDS011;35400;45.472;-122.822;2023-06-10T14:31:34;3.73;;;3.43;;
6374;SDS011;35400;45.472;-122.822;2023-06-10T14:34:01;5.47;;;3.73;;
6374;SDS011;35400;45.472;-122.822;2023-06-10T14:36:28;3.83;;;3.53;;
6374;SDS011;35400;45.472;-122.822;2023-06-10T14:38:54;5.87;;;3.63;;
6374;SDS011;35400;45.472;-122.822;2023-06-10T14:41:22;3.97;;;3.63;;
6374;SDS011;35400;45.472;-122.822;2023-06-10T14:43:49;4.47;;;3.80;;
6374;SDS011;35400;45.472;-122.822;2023-06-10T14:46:16;6.40;;;3.80;;
6374;SDS011;35400;45.472;-122.822;2023-06-10T14:48:43;4.20;;;3.73;;
6374;SDS011;35400;45.472;-122.822;2023-06-10T14:51:10;4.30;;;3.90;;
6374;SDS011;35400;45.472;-122.822;2023-06-10T14:53:37;3.77;;;3.40;;